createdAt,value
2018-07-20T00:01:48.968Z,99.90
2018-07-20T00:04:16.970Z,99.90
2018-07-20T00:06:45.039Z,99.90
2018-07-20T00:09:13.110Z,99.90
2018-07-20T00:11:41.145Z,99.90
2018-07-20T00:14:09.182Z,99.90
2018-07-20T00:16:37.332Z,99.90
2018-07-20T00:19:05.355Z,99.90
2018-07-20T00:21:33.434Z,99.90
2018-07-20T00:24:01.816Z,99.90
2018-07-20T00:26:29.903Z,99.90
2018-07-20T00:28:57.910Z,99.90
2018-07-20T00:31:26.038Z,99.90
2018-07-20T00:33:54.116Z,99.90
2018-07-20T00:36:22.278Z,99.90
2018-07-20T00:38:50.387Z,99.90
2018-07-20T00:41:18.388Z,99.90
2018-07-20T00:43:46.401Z,99.90
2018-07-20T00:46:14.451Z,99.90
2018-07-20T00:48:42.466Z,99.90
2018-07-20T00:51:10.612Z,99.90
2018-07-20T00:53:38.680Z,99.90
2018-07-20T00:56:06.799Z,99.90
2018-07-20T00:58:34.818Z,99.90
2018-07-20T01:01:02.875Z,99.90
2018-07-20T01:03:30.885Z,99.90
2018-07-20T01:05:58.942Z,99.90
2018-07-20T01:08:26.982Z,99.90
2018-07-20T01:10:55.202Z,99.90
2018-07-20T01:13:23.217Z,99.90
2018-07-20T01:15:51.309Z,99.90
2018-07-20T01:18:19.412Z,99.90
2018-07-20T01:20:47.449Z,99.90
2018-07-20T01:23:15.461Z,99.90
2018-07-20T01:25:43.525Z,99.90
2018-07-20T01:28:11.609Z,99.90
2018-07-20T01:30:39.681Z,99.90
2018-07-20T01:33:07.852Z,99.90
2018-07-20T01:35:35.885Z,99.90
2018-07-20T01:38:03.926Z,99.90
2018-07-20T01:40:31.978Z,99.90
2018-07-20T01:43:00.055Z,99.90
2018-07-20T01:45:28.116Z,99.90
2018-07-20T01:47:56.203Z,99.90
2018-07-20T01:50:24.250Z,99.90
2018-07-20T01:52:52.339Z,99.90
2018-07-20T01:55:20.361Z,99.90
2018-07-20T01:57:48.473Z,99.90
2018-07-20T02:00:16.583Z,99.90
2018-07-20T02:02:44.621Z,99.90
2018-07-20T02:05:12.642Z,99.90
2018-07-20T02:07:40.969Z,99.90
2018-07-20T02:10:09.056Z,99.90
2018-07-20T02:12:37.224Z,99.90
2018-07-20T02:15:05.624Z,99.90
2018-07-20T02:17:33.786Z,99.90
2018-07-20T02:20:01.797Z,99.90
2018-07-20T02:22:29.928Z,99.90
2018-07-20T02:24:57.953Z,99.90
2018-07-20T02:29:53.790Z,99.90
2018-07-20T02:32:21.918Z,99.90
2018-07-20T02:34:49.962Z,99.90
2018-07-20T02:37:18.048Z,99.90
2018-07-20T02:39:46.074Z,99.90
2018-07-20T02:42:14.116Z,99.90
2018-07-20T02:44:42.134Z,99.90
2018-07-20T02:47:10.169Z,99.90
2018-07-20T02:49:38.187Z,99.90
2018-07-20T02:52:06.283Z,99.90
2018-07-20T02:54:34.360Z,99.90
2018-07-20T02:57:02.371Z,99.90
2018-07-20T02:59:30.489Z,99.90
2018-07-20T03:01:58.600Z,99.90
2018-07-20T03:04:26.644Z,99.90
2018-07-20T03:06:54.667Z,99.90
2018-07-20T03:09:22.749Z,99.90
2018-07-20T03:11:50.717Z,99.90
2018-07-20T03:14:18.789Z,99.90
2018-07-20T03:16:46.894Z,99.90
2018-07-20T03:19:14.941Z,99.90
2018-07-20T03:21:43.043Z,99.90
2018-07-20T03:24:11.120Z,99.90
2018-07-20T03:26:39.193Z,99.90
2018-07-20T03:29:07.257Z,99.90
2018-07-20T03:31:35.282Z,99.90
2018-07-20T03:34:03.363Z,99.90
2018-07-20T03:36:31.393Z,99.90
2018-07-20T03:38:59.442Z,99.90
2018-07-20T03:41:27.522Z,99.90
2018-07-20T03:43:55.592Z,99.90
2018-07-20T03:46:23.654Z,99.90
2018-07-20T03:48:51.706Z,99.90
2018-07-20T03:51:19.808Z,99.90
2018-07-20T03:53:48.289Z,99.90
2018-07-20T03:56:16.338Z,99.90
2018-07-20T03:58:44.442Z,99.90
2018-07-20T04:01:12.486Z,99.90
2018-07-20T04:06:08.381Z,99.90
2018-07-20T04:08:36.433Z,99.90
2018-07-20T04:11:04.497Z,99.90
2018-07-20T04:13:32.600Z,99.90
2018-07-20T04:16:00.609Z,99.90
2018-07-20T04:18:28.627Z,99.90
2018-07-20T04:20:57.106Z,99.90
2018-07-20T04:23:25.160Z,99.90
2018-07-20T04:25:53.761Z,99.90
2018-07-20T04:28:22.604Z,99.90
2018-07-20T04:30:51.013Z,99.90
2018-07-20T04:33:19.051Z,99.90
2018-07-20T04:35:47.637Z,99.90
2018-07-20T04:38:15.805Z,99.90
2018-07-20T04:40:43.850Z,99.90
2018-07-20T04:43:11.889Z,99.90
2018-07-20T04:45:39.970Z,99.90
2018-07-20T04:48:08.084Z,99.90
2018-07-20T04:50:36.175Z,99.90
2018-07-20T04:53:04.208Z,99.90
2018-07-20T04:55:32.281Z,99.90
2018-07-20T04:58:00.314Z,99.90
2018-07-20T05:00:28.365Z,99.90
2018-07-20T05:05:24.214Z,99.90
2018-07-20T05:07:52.233Z,99.90
2018-07-20T05:10:20.293Z,99.90
2018-07-20T05:12:48.346Z,99.90
2018-07-20T05:15:16.422Z,99.90
2018-07-20T05:17:44.526Z,99.90
2018-07-20T05:20:12.534Z,99.90
2018-07-20T05:22:40.556Z,99.90
2018-07-20T05:25:08.605Z,99.90
2018-07-20T05:27:36.613Z,99.90
2018-07-20T05:30:04.657Z,99.90
2018-07-20T05:32:32.702Z,99.90
2018-07-20T05:35:00.826Z,99.90
2018-07-20T05:37:28.901Z,99.90
2018-07-20T05:39:56.941Z,99.90
2018-07-20T05:42:25.014Z,99.90
2018-07-20T05:44:53.224Z,99.90
2018-07-20T05:47:21.214Z,99.90
2018-07-20T05:49:49.363Z,99.90
2018-07-20T05:52:17.381Z,99.90
2018-07-20T05:54:45.726Z,99.90
2018-07-20T05:57:13.738Z,99.90
2018-07-20T05:59:41.828Z,99.90
2018-07-20T06:02:09.851Z,99.90
2018-07-20T06:04:37.858Z,99.90
2018-07-20T06:07:05.972Z,99.90
2018-07-20T06:09:33.970Z,99.90
2018-07-20T06:12:02.084Z,99.90
2018-07-20T06:14:30.131Z,99.90
2018-07-20T06:16:58.229Z,99.90
2018-07-20T06:19:26.306Z,99.90
2018-07-20T06:21:54.345Z,99.90
2018-07-20T06:24:22.445Z,99.90
2018-07-20T06:26:50.527Z,99.90
2018-07-20T06:29:18.626Z,99.90
2018-07-20T06:31:46.667Z,99.90
2018-07-20T06:34:14.749Z,99.90
2018-07-20T06:36:42.785Z,99.90
2018-07-20T06:39:12.142Z,99.90
2018-07-20T06:41:40.430Z,99.90
2018-07-20T06:44:08.490Z,99.90
2018-07-20T06:46:37.121Z,99.90
2018-07-20T06:49:05.735Z,99.90
2018-07-20T06:51:33.963Z,99.90
2018-07-20T06:54:01.982Z,99.90
2018-07-20T06:56:30.081Z,99.90
2018-07-20T06:58:58.124Z,99.90
2018-07-20T07:01:26.227Z,99.90
2018-07-20T07:03:54.268Z,99.90
2018-07-20T07:06:22.313Z,99.90
2018-07-20T07:08:50.422Z,99.90
2018-07-20T07:11:18.461Z,99.90
2018-07-20T07:13:46.608Z,99.90
2018-07-20T07:16:14.650Z,99.90
2018-07-20T07:18:42.687Z,99.90
2018-07-20T07:21:10.808Z,99.90
2018-07-20T07:23:38.860Z,99.90
2018-07-20T07:26:06.918Z,99.90
2018-07-20T07:28:34.994Z,99.90
2018-07-20T07:31:03.093Z,99.90
2018-07-20T07:33:31.144Z,99.90
2018-07-20T07:35:59.239Z,99.90
2018-07-20T07:38:27.284Z,99.90
2018-07-20T07:40:55.480Z,99.90
2018-07-20T07:43:23.486Z,99.90
2018-07-20T07:45:51.609Z,99.90
2018-07-20T07:48:19.650Z,99.90
2018-07-20T07:50:47.742Z,99.90
2018-07-20T07:53:15.790Z,99.90
2018-07-20T07:55:43.894Z,99.90
2018-07-20T07:58:12.271Z,99.90
2018-07-20T08:00:40.330Z,99.90
2018-07-20T08:03:08.389Z,99.90
2018-07-20T08:05:36.397Z,99.90
2018-07-20T08:08:04.488Z,99.90
2018-07-20T08:10:32.503Z,99.90
2018-07-20T08:13:00.623Z,99.90
2018-07-20T08:15:28.634Z,99.90
2018-07-20T08:17:56.671Z,99.90
2018-07-20T08:20:24.744Z,99.90
2018-07-20T08:22:52.818Z,99.90
2018-07-20T08:25:20.868Z,99.90
2018-07-20T08:27:48.966Z,99.90
2018-07-20T08:30:17.016Z,99.90
2018-07-20T08:32:45.054Z,99.90
2018-07-20T08:35:13.149Z,99.90
2018-07-20T08:37:41.202Z,99.90
2018-07-20T08:40:09.331Z,99.90
2018-07-20T08:42:37.472Z,99.90
2018-07-20T08:45:05.543Z,99.90
2018-07-20T08:47:33.614Z,99.90
2018-07-20T08:50:01.695Z,99.90
2018-07-20T08:52:29.774Z,99.00
2018-07-20T08:54:57.866Z,99.30
2018-07-20T08:57:25.921Z,99.10
2018-07-20T08:59:54.017Z,97.80
2018-07-20T09:02:22.009Z,97.10
2018-07-20T09:04:50.053Z,97.70
2018-07-20T09:07:18.096Z,95.40
2018-07-20T09:09:46.111Z,96.90
2018-07-20T09:12:14.237Z,96.10
2018-07-20T09:14:42.320Z,97.50
2018-07-20T09:17:10.482Z,97.10
2018-07-20T09:19:38.521Z,97.60
2018-07-20T09:22:06.595Z,97.40
2018-07-20T09:24:35.145Z,97.20
2018-07-20T09:27:03.169Z,97.70
2018-07-20T09:29:32.664Z,96.30
2018-07-20T09:32:02.322Z,97.50
2018-07-20T09:34:31.506Z,97.60
2018-07-20T09:36:59.596Z,97.90
2018-07-20T09:39:27.649Z,97.40
2018-07-20T09:41:55.731Z,96.90
2018-07-20T09:44:23.846Z,96.30
2018-07-20T09:46:51.833Z,96.70
2018-07-20T09:49:19.930Z,97.00
2018-07-20T09:51:47.955Z,98.10
2018-07-20T09:54:15.996Z,97.60
2018-07-20T09:56:44.163Z,98.10
2018-07-20T09:59:12.343Z,96.60
2018-07-20T10:01:40.349Z,94.70
2018-07-20T10:09:06.337Z,95.10
2018-07-20T10:11:34.455Z,94.90
2018-07-20T10:14:02.599Z,93.90
2018-07-20T10:16:30.614Z,93.10
2018-07-20T10:18:58.719Z,93.20
2018-07-20T10:21:26.701Z,92.30
2018-07-20T10:23:54.750Z,90.80
2018-07-20T10:26:22.882Z,92.20
2018-07-20T10:28:50.942Z,91.20
2018-07-20T10:31:18.965Z,92.50
2018-07-20T10:33:47.066Z,91.30
2018-07-20T10:36:15.146Z,91.50
2018-07-20T10:38:43.365Z,91.60
2018-07-20T10:41:11.418Z,91.00
2018-07-20T10:43:39.444Z,90.40
2018-07-20T10:46:07.453Z,90.70
2018-07-20T10:48:35.630Z,89.80
2018-07-20T10:51:03.673Z,90.70
2018-07-20T10:53:31.784Z,91.60
2018-07-20T10:55:59.790Z,91.20
2018-07-20T10:58:27.906Z,92.00
2018-07-20T11:00:55.962Z,90.30
2018-07-20T11:03:24.042Z,90.70
2018-07-20T11:05:52.158Z,90.80
2018-07-20T11:08:20.199Z,89.30
2018-07-20T11:10:48.249Z,88.30
2018-07-20T11:13:16.305Z,89.70
2018-07-20T11:15:44.328Z,84.80
2018-07-20T11:18:12.474Z,88.20
2018-07-20T11:20:40.494Z,85.20
2018-07-20T11:23:08.543Z,87.70
2018-07-20T11:25:36.697Z,85.90
2018-07-20T11:28:04.885Z,83.40
2018-07-20T11:30:32.948Z,78.80
2018-07-20T11:33:00.977Z,82.80
2018-07-20T11:35:29.083Z,82.00
2018-07-20T11:37:57.101Z,81.00
2018-07-20T11:40:25.187Z,82.10
2018-07-20T11:42:53.358Z,78.60
2018-07-20T11:45:21.410Z,78.10
2018-07-20T11:47:49.454Z,74.40
2018-07-20T11:52:45.490Z,75.20
2018-07-20T11:55:14.233Z,75.40
2018-07-20T11:57:42.279Z,73.60
2018-07-20T12:00:10.329Z,75.20
2018-07-20T12:02:38.437Z,72.70
2018-07-20T12:05:06.503Z,73.60
2018-07-20T12:07:34.579Z,73.90
2018-07-20T12:10:02.750Z,69.40
2018-07-20T12:12:30.765Z,71.90
2018-07-20T12:14:58.903Z,71.90
2018-07-20T12:17:27.039Z,67.30
2018-07-20T12:19:55.112Z,64.40
2018-07-20T12:22:23.162Z,61.50
2018-07-20T12:24:51.283Z,58.00
2018-07-20T12:27:19.330Z,55.70
2018-07-20T12:29:47.394Z,53.80
2018-07-20T12:32:15.478Z,50.20
2018-07-20T12:34:43.550Z,50.00
2018-07-20T12:37:11.756Z,50.90
2018-07-20T12:39:39.890Z,50.20
2018-07-20T12:42:07.966Z,49.20
2018-07-20T12:44:36.034Z,49.60
2018-07-20T12:47:04.106Z,47.70
2018-07-20T12:49:32.141Z,46.70
2018-07-20T12:52:00.244Z,44.40
2018-07-20T12:54:28.328Z,42.50
2018-07-20T12:56:56.388Z,42.30
2018-07-20T12:59:24.422Z,41.10
2018-07-20T13:01:52.541Z,41.10
2018-07-20T13:04:20.677Z,42.80
2018-07-20T13:06:48.694Z,42.70
2018-07-20T13:09:16.760Z,43.80
2018-07-20T13:11:44.829Z,43.10
2018-07-20T13:14:13.261Z,44.60
2018-07-20T13:16:42.005Z,44.60
2018-07-20T13:19:10.071Z,45.20
2018-07-20T13:21:38.239Z,41.00
2018-07-20T13:24:06.317Z,39.50
2018-07-20T13:26:34.425Z,39.20
2018-07-20T13:29:02.657Z,39.60
2018-07-20T13:31:30.861Z,39.30
2018-07-20T13:33:58.889Z,40.90
2018-07-20T13:36:26.964Z,39.70
2018-07-20T13:41:22.873Z,41.00
2018-07-20T13:43:51.005Z,41.90
2018-07-20T13:46:19.078Z,43.00
2018-07-20T13:48:47.108Z,44.90
2018-07-20T13:51:15.184Z,46.30
2018-07-20T13:53:43.294Z,47.70
2018-07-20T13:56:11.385Z,46.50
2018-07-20T13:58:39.477Z,45.70
2018-07-20T14:01:07.613Z,45.20
2018-07-20T14:03:35.632Z,44.60
2018-07-20T14:06:03.753Z,44.20
2018-07-20T14:08:31.827Z,44.40
2018-07-20T14:10:59.914Z,44.00
2018-07-20T14:13:27.926Z,43.40
2018-07-20T14:15:55.954Z,41.60
2018-07-20T14:18:24.018Z,39.30
2018-07-20T14:20:52.097Z,39.10
2018-07-20T14:23:20.161Z,39.40
2018-07-20T14:25:48.241Z,37.60
2018-07-20T14:28:16.311Z,39.70
2018-07-20T14:30:44.497Z,38.10
2018-07-20T14:33:12.590Z,36.10
2018-07-20T14:35:40.769Z,35.30
2018-07-20T14:38:08.802Z,34.70
2018-07-20T14:40:36.974Z,35.30
2018-07-20T14:43:05.070Z,34.90
2018-07-20T14:45:33.070Z,35.60
2018-07-20T14:48:01.102Z,37.20
2018-07-20T14:50:29.131Z,35.70
2018-07-20T14:55:24.923Z,36.00
2018-07-20T14:57:53.070Z,37.40
2018-07-20T15:00:21.149Z,36.90
2018-07-20T15:02:49.173Z,35.60
2018-07-20T15:05:17.190Z,35.60
2018-07-20T15:07:45.232Z,35.60
2018-07-20T15:10:13.245Z,35.40
2018-07-20T15:12:41.297Z,34.90
2018-07-20T15:15:09.611Z,35.70
2018-07-20T15:17:38.013Z,35.80
2018-07-20T15:20:06.342Z,36.00
2018-07-20T15:22:34.801Z,36.50
2018-07-20T15:25:02.777Z,36.40
2018-07-20T15:27:30.866Z,37.50
2018-07-20T15:29:59.050Z,37.30
2018-07-20T15:32:27.126Z,37.00
2018-07-20T15:34:55.211Z,36.30
2018-07-20T15:37:23.262Z,37.60
2018-07-20T15:39:51.344Z,36.60
2018-07-20T15:42:19.378Z,36.70
2018-07-20T15:44:47.673Z,36.00
2018-07-20T15:47:15.808Z,35.40
2018-07-20T15:49:43.788Z,36.50
2018-07-20T15:54:39.659Z,37.10
2018-07-20T15:57:08.005Z,36.10
2018-07-20T16:02:04.124Z,36.80
2018-07-20T16:04:32.154Z,36.20
2018-07-20T16:07:00.225Z,35.40
2018-07-20T16:09:28.238Z,35.50
2018-07-20T16:11:56.370Z,34.70
2018-07-20T16:14:24.441Z,33.50
2018-07-20T16:16:52.515Z,34.40
2018-07-20T16:19:20.617Z,35.10
2018-07-20T16:21:48.670Z,35.30
2018-07-20T16:24:16.738Z,35.00
2018-07-20T16:26:44.788Z,35.50
2018-07-20T16:29:15.475Z,35.50
2018-07-20T16:31:43.545Z,35.30
2018-07-20T16:34:11.577Z,35.70
2018-07-20T16:36:39.652Z,36.40
2018-07-20T16:39:08.451Z,36.90
2018-07-20T16:41:36.760Z,37.40
2018-07-20T16:44:04.904Z,38.10
2018-07-20T16:46:32.978Z,37.60
2018-07-20T16:49:01.102Z,36.90
2018-07-20T16:51:29.137Z,36.40
2018-07-20T16:53:57.224Z,36.80
2018-07-20T16:56:26.270Z,37.50
2018-07-20T16:58:54.438Z,37.80
2018-07-20T17:01:22.558Z,37.40
2018-07-20T17:03:50.998Z,37.00
2018-07-20T17:06:19.130Z,37.00
2018-07-20T17:08:47.258Z,37.00
2018-07-20T17:11:15.338Z,37.30
2018-07-20T17:13:43.409Z,37.90
2018-07-20T17:16:11.490Z,38.60
2018-07-20T17:18:39.606Z,37.90
2018-07-20T17:21:07.661Z,37.60
2018-07-20T17:23:35.710Z,37.80
2018-07-20T17:26:03.770Z,38.10
2018-07-20T17:28:31.860Z,38.10
2018-07-20T17:30:59.881Z,38.30
2018-07-20T17:33:28.024Z,38.80
2018-07-20T17:35:56.009Z,38.10
2018-07-20T17:38:24.079Z,37.90
2018-07-20T17:40:52.117Z,38.90
2018-07-20T17:43:20.166Z,39.80
2018-07-20T17:45:48.319Z,40.50
2018-07-20T17:48:16.309Z,40.40
2018-07-20T17:50:44.593Z,42.10
2018-07-20T17:53:12.639Z,42.90
2018-07-20T17:55:40.645Z,43.80
2018-07-20T17:58:08.693Z,43.70
2018-07-20T18:00:36.783Z,44.30
2018-07-20T18:03:05.113Z,44.70
2018-07-20T18:05:33.125Z,45.60
2018-07-20T18:08:01.716Z,46.50
2018-07-20T18:10:29.793Z,45.30
2018-07-20T18:12:57.877Z,45.40
2018-07-20T18:15:25.935Z,46.00
2018-07-20T18:17:54.063Z,47.10
2018-07-20T18:20:22.080Z,48.00
2018-07-20T18:22:50.277Z,47.20
2018-07-20T18:25:18.662Z,49.30
2018-07-20T18:27:46.677Z,48.00
2018-07-20T18:30:14.755Z,48.10
2018-07-20T18:32:42.797Z,49.50
2018-07-20T18:35:11.137Z,49.20
2018-07-20T18:37:40.466Z,50.20
2018-07-20T18:40:08.817Z,50.40
2018-07-20T18:42:36.842Z,51.50
2018-07-20T18:45:05.220Z,50.50
2018-07-20T18:47:33.257Z,52.20
2018-07-20T18:50:01.450Z,51.30
2018-07-20T18:52:29.467Z,51.60
2018-07-20T18:54:57.562Z,53.10
2018-07-20T18:57:25.621Z,52.40
2018-07-20T18:59:54.116Z,52.80
2018-07-20T19:02:22.758Z,52.20
2018-07-20T19:04:51.647Z,52.70
2018-07-20T19:07:19.642Z,53.00
2018-07-20T19:09:47.742Z,52.10
2018-07-20T19:12:15.805Z,52.90
2018-07-20T19:14:43.882Z,53.60
2018-07-20T19:17:11.943Z,54.40
2018-07-20T19:19:40.018Z,53.50
2018-07-20T19:22:08.074Z,54.30
2018-07-20T19:24:36.129Z,55.60
2018-07-20T19:27:04.986Z,56.30
2018-07-20T19:29:33.031Z,56.70
2018-07-20T19:32:01.054Z,57.90
2018-07-20T19:36:57.037Z,57.90
2018-07-20T19:39:25.114Z,56.90
2018-07-20T19:41:53.957Z,58.30
2018-07-20T19:44:22.129Z,60.00
2018-07-20T19:46:50.158Z,59.40
2018-07-20T19:49:18.221Z,58.10
2018-07-20T19:51:46.254Z,56.90
2018-07-20T19:54:14.336Z,59.00
2018-07-20T19:56:42.340Z,58.90
2018-07-20T20:01:38.226Z,60.70
2018-07-20T20:04:06.605Z,58.50
2018-07-20T20:06:34.706Z,58.10
2018-07-20T20:09:02.766Z,58.10
2018-07-20T20:11:30.823Z,59.80
2018-07-20T20:13:58.857Z,60.90
2018-07-20T20:16:26.902Z,59.40
2018-07-20T20:18:54.938Z,59.30
2018-07-20T20:21:22.983Z,64.10
2018-07-20T20:23:51.078Z,65.60
2018-07-20T20:26:19.166Z,66.80
2018-07-20T20:28:47.189Z,66.70
2018-07-20T20:31:15.305Z,68.80
2018-07-20T20:33:43.365Z,64.10
2018-07-20T20:36:11.410Z,68.60
2018-07-20T20:38:39.526Z,71.80
2018-07-20T20:41:07.567Z,72.30
2018-07-20T20:43:35.729Z,69.80
2018-07-20T20:46:03.730Z,72.20
2018-07-20T20:48:31.741Z,70.90
2018-07-20T20:50:59.915Z,73.30
2018-07-20T20:53:27.853Z,73.60
2018-07-20T20:55:55.927Z,71.60
2018-07-20T20:58:23.992Z,72.70
2018-07-20T21:00:52.163Z,76.60
2018-07-20T21:03:20.197Z,75.80
2018-07-20T21:08:16.109Z,73.80
2018-07-20T21:10:44.153Z,74.50
2018-07-20T21:13:12.174Z,74.80
2018-07-20T21:15:40.321Z,72.30
2018-07-20T21:18:08.375Z,75.00
2018-07-20T21:20:36.467Z,78.00
2018-07-20T21:23:04.471Z,76.50
2018-07-20T21:25:32.701Z,77.70
2018-07-20T21:28:00.639Z,77.60
2018-07-20T21:30:28.730Z,80.40
2018-07-20T21:32:56.813Z,81.60
2018-07-20T21:35:24.855Z,83.00
2018-07-20T21:37:52.909Z,84.80
2018-07-20T21:40:21.032Z,84.70
2018-07-20T21:42:49.118Z,88.50
2018-07-20T21:45:17.184Z,85.60
2018-07-20T21:47:45.189Z,90.40
2018-07-20T21:50:13.336Z,90.60
2018-07-20T21:52:41.381Z,91.20
2018-07-20T21:55:09.445Z,92.30
2018-07-20T21:57:37.482Z,92.20
2018-07-20T22:00:06.867Z,93.30
2018-07-20T22:02:34.878Z,92.80
2018-07-20T22:05:02.999Z,92.90
2018-07-20T22:07:31.002Z,94.10
2018-07-20T22:09:59.109Z,93.60
2018-07-20T22:12:27.158Z,92.30
2018-07-20T22:14:55.219Z,94.70
2018-07-20T22:17:23.267Z,93.50
2018-07-20T22:19:51.303Z,92.90
2018-07-20T22:22:19.345Z,94.40
2018-07-20T22:24:47.466Z,95.20
2018-07-20T22:27:15.501Z,94.90
2018-07-20T22:29:43.619Z,95.80
2018-07-20T22:32:11.684Z,97.20
2018-07-20T22:34:39.703Z,98.40
2018-07-20T22:37:07.813Z,98.90
2018-07-20T22:39:35.882Z,99.90
2018-07-20T22:42:03.985Z,99.80
2018-07-20T22:44:32.090Z,99.90
2018-07-20T22:47:00.090Z,99.90
2018-07-20T22:49:28.131Z,99.90
2018-07-20T22:51:56.173Z,99.90
2018-07-20T22:54:24.344Z,99.90
2018-07-20T22:56:52.386Z,99.90
2018-07-20T22:59:20.457Z,99.90
2018-07-20T23:01:48.560Z,99.90
2018-07-20T23:04:16.566Z,99.90
2018-07-20T23:06:44.690Z,99.90
2018-07-20T23:09:12.713Z,99.90
2018-07-20T23:11:40.817Z,99.90
2018-07-20T23:14:08.849Z,99.90
2018-07-20T23:16:37.485Z,99.90
2018-07-20T23:19:05.769Z,99.90
2018-07-20T23:21:33.933Z,99.90
2018-07-20T23:24:02.133Z,99.90
2018-07-20T23:26:30.209Z,99.90
2018-07-20T23:28:58.279Z,99.90
2018-07-20T23:31:26.317Z,99.90
2018-07-20T23:33:54.400Z,99.90
2018-07-20T23:36:22.461Z,99.90
2018-07-20T23:38:50.543Z,99.90
2018-07-20T23:41:18.582Z,99.90
2018-07-20T23:43:46.612Z,99.90
2018-07-20T23:46:14.658Z,99.90
2018-07-20T23:48:42.686Z,99.90
2018-07-20T23:51:10.793Z,99.90
2018-07-20T23:53:38.816Z,99.90
2018-07-20T23:56:06.864Z,99.90
2018-07-20T23:58:34.913Z,99.90
